createdAt,value
2017-12-05T00:00:05.602Z,99.99
2017-12-05T00:01:19.236Z,99.99
2017-12-05T00:02:32.922Z,99.99
2017-12-05T00:03:46.966Z,99.99
2017-12-05T00:05:00.093Z,99.99
2017-12-05T00:06:13.728Z,99.99
2017-12-05T00:07:26.890Z,99.99
2017-12-05T00:08:40.047Z,99.99
2017-12-05T00:09:53.662Z,99.99
2017-12-05T00:11:07.035Z,99.99
2017-12-05T00:12:20.211Z,99.99
2017-12-05T00:13:32.845Z,99.99
2017-12-05T00:14:46.525Z,99.99
2017-12-05T00:16:00.165Z,99.99
2017-12-05T00:17:13.286Z,99.99
2017-12-05T00:18:26.946Z,99.99
2017-12-05T00:19:40.614Z,99.99
2017-12-05T00:20:54.313Z,99.99
2017-12-05T00:22:07.437Z,99.99
2017-12-05T00:23:20.111Z,99.99
2017-12-05T00:24:33.773Z,99.99
2017-12-05T00:25:46.936Z,99.99
2017-12-05T00:27:00.587Z,99.99
2017-12-05T00:28:13.707Z,99.99
2017-12-05T00:29:27.371Z,99.99
2017-12-05T00:30:41.084Z,99.99
2017-12-05T00:31:54.781Z,99.99
2017-12-05T00:33:08.448Z,99.99
2017-12-05T00:34:22.147Z,99.99
2017-12-05T00:35:35.816Z,99.99
2017-12-05T00:36:49.497Z,99.99
2017-12-05T00:38:03.156Z,99.99
2017-12-05T00:39:16.772Z,99.99
2017-12-05T00:40:30.449Z,99.99
2017-12-05T00:41:44.094Z,99.99
2017-12-05T00:42:57.785Z,99.99
2017-12-05T00:44:11.414Z,99.99
2017-12-05T00:45:24.560Z,99.99
2017-12-05T00:46:38.174Z,99.99
2017-12-05T00:47:51.817Z,99.99
2017-12-05T00:49:04.985Z,99.99
2017-12-05T00:50:18.666Z,99.99
2017-12-05T00:51:32.353Z,99.99
2017-12-05T00:52:45.979Z,99.99
2017-12-05T00:53:59.216Z,99.99
2017-12-05T00:55:12.847Z,99.99
2017-12-05T00:56:26.715Z,99.99
2017-12-05T00:57:39.872Z,99.99
2017-12-05T00:58:53.535Z,99.99
2017-12-05T01:00:07.171Z,99.99
2017-12-05T01:01:20.812Z,99.99
2017-12-05T01:02:33.968Z,99.99
2017-12-05T01:03:47.603Z,99.99
2017-12-05T01:05:01.325Z,99.99
2017-12-05T01:06:14.995Z,99.99
2017-12-05T01:07:28.762Z,99.99
2017-12-05T01:08:42.430Z,99.99
2017-12-05T01:09:55.569Z,99.99
2017-12-05T01:11:09.224Z,99.99
2017-12-05T01:12:22.371Z,99.99
2017-12-05T01:13:36.031Z,99.99
2017-12-05T01:14:49.897Z,99.99
2017-12-05T01:16:03.544Z,99.99
2017-12-05T01:17:16.644Z,99.99
2017-12-05T01:18:30.305Z,99.99
2017-12-05T01:19:43.994Z,99.99
2017-12-05T01:20:58.210Z,99.99
2017-12-05T01:22:11.873Z,99.99
2017-12-05T01:23:24.517Z,99.99
2017-12-05T01:25:09.258Z,99.99
2017-12-05T01:26:22.385Z,99.99
2017-12-05T01:27:35.988Z,99.99
2017-12-05T01:28:48.636Z,99.99
2017-12-05T01:30:01.751Z,99.99
2017-12-05T01:31:15.364Z,99.99
2017-12-05T01:32:28.014Z,99.99
2017-12-05T01:33:41.683Z,99.99
2017-12-05T01:34:55.306Z,99.99
2017-12-05T01:36:08.636Z,99.99
2017-12-05T01:37:22.308Z,99.99
2017-12-05T01:38:35.985Z,99.99
2017-12-05T01:39:49.666Z,99.99
2017-12-05T01:41:03.360Z,99.99
2017-12-05T01:42:17.015Z,99.99
2017-12-05T01:43:30.671Z,99.99
2017-12-05T01:44:44.535Z,99.99
2017-12-05T01:45:58.034Z,99.99
2017-12-05T01:47:11.014Z,99.99
2017-12-05T01:48:24.008Z,99.99
2017-12-05T01:49:36.991Z,99.99
2017-12-05T01:50:50.189Z,99.99
2017-12-05T01:52:02.269Z,99.99
2017-12-05T01:53:14.758Z,99.99
2017-12-05T01:54:27.734Z,99.99
2017-12-05T01:55:40.725Z,99.99
2017-12-05T01:56:53.222Z,99.99
2017-12-05T01:58:05.758Z,99.99
2017-12-05T01:59:18.744Z,99.99
2017-12-05T02:00:31.732Z,99.99
2017-12-05T02:01:44.671Z,99.99
2017-12-05T02:02:57.620Z,99.99
2017-12-05T02:04:10.596Z,99.99
2017-12-05T02:05:23.098Z,99.99
2017-12-05T02:06:35.609Z,99.99
2017-12-05T02:07:48.583Z,99.99
2017-12-05T02:09:01.546Z,99.99
2017-12-05T02:10:14.034Z,99.99
2017-12-05T02:11:27.206Z,99.99
2017-12-05T02:12:40.219Z,99.99
2017-12-05T02:13:53.199Z,99.99
2017-12-05T02:15:05.748Z,99.99
2017-12-05T02:16:18.883Z,99.99
2017-12-05T02:17:31.829Z,99.99
2017-12-05T02:18:44.305Z,99.99
2017-12-05T02:19:56.856Z,99.99
2017-12-05T02:21:09.347Z,99.99
2017-12-05T02:22:21.843Z,99.99
2017-12-05T02:23:34.844Z,99.99
2017-12-05T02:24:47.800Z,99.99
2017-12-05T02:26:00.286Z,99.99
2017-12-05T02:27:12.779Z,99.99
2017-12-05T02:28:25.753Z,99.99
2017-12-05T02:29:38.711Z,99.99
2017-12-05T02:30:51.668Z,99.99
2017-12-05T02:32:04.199Z,99.99
2017-12-05T02:33:17.173Z,99.99
2017-12-05T02:34:29.676Z,99.99
2017-12-05T02:35:42.667Z,99.99
2017-12-05T02:36:55.618Z,99.99
2017-12-05T02:38:07.912Z,99.99
2017-12-05T02:39:20.904Z,99.99
2017-12-05T02:40:33.885Z,99.99
2017-12-05T02:41:46.833Z,99.99
2017-12-05T02:42:59.813Z,99.99
2017-12-05T02:44:12.350Z,99.99
2017-12-05T02:45:24.847Z,99.99
2017-12-05T02:46:37.836Z,99.99
2017-12-05T02:47:50.852Z,99.99
2017-12-05T02:49:04.043Z,99.99
2017-12-05T02:50:17.032Z,99.99
2017-12-05T02:51:30.007Z,99.99
2017-12-05T02:52:43.196Z,99.99
2017-12-05T02:53:56.147Z,99.99
2017-12-05T02:55:09.127Z,99.99
2017-12-05T02:56:22.332Z,99.99
2017-12-05T02:57:35.358Z,99.99
2017-12-05T02:58:48.352Z,99.99
2017-12-05T03:00:00.863Z,99.99
2017-12-05T03:01:13.806Z,99.99
2017-12-05T03:02:26.293Z,99.99
2017-12-05T03:03:38.863Z,99.99
2017-12-05T03:04:51.816Z,99.99
2017-12-05T03:06:04.285Z,99.99
2017-12-05T03:07:16.795Z,99.99
2017-12-05T03:08:29.747Z,99.99
2017-12-05T03:09:42.750Z,99.99
2017-12-05T03:10:55.731Z,99.99
2017-12-05T03:12:08.205Z,99.99
2017-12-05T03:13:21.186Z,99.99
2017-12-05T03:14:34.138Z,99.99
2017-12-05T03:15:47.081Z,99.99
2017-12-05T03:17:00.060Z,99.99
2017-12-05T03:18:12.596Z,99.99
2017-12-05T03:19:25.548Z,99.99
2017-12-05T03:20:38.507Z,99.99
2017-12-05T03:21:51.458Z,99.99
2017-12-05T03:23:04.438Z,99.99
2017-12-05T03:24:17.384Z,99.99
2017-12-05T03:25:30.336Z,99.99
2017-12-05T03:26:42.558Z,99.99
2017-12-05T03:27:55.504Z,99.99
2017-12-05T03:29:08.452Z,99.99
2017-12-05T03:30:21.430Z,99.99
2017-12-05T03:31:34.419Z,99.99
2017-12-05T03:32:47.144Z,99.99
2017-12-05T03:34:00.106Z,99.99
2017-12-05T03:35:13.099Z,99.99
2017-12-05T03:36:25.145Z,99.99
2017-12-05T03:37:37.679Z,99.99
2017-12-05T03:38:50.646Z,99.99
2017-12-05T03:40:03.221Z,99.99
2017-12-05T03:41:15.904Z,99.99
2017-12-05T03:42:28.853Z,99.99
2017-12-05T03:43:41.819Z,99.99
2017-12-05T03:44:54.972Z,99.99
2017-12-05T03:46:07.908Z,99.99
2017-12-05T03:47:20.907Z,99.99
2017-12-05T03:48:33.901Z,99.99
2017-12-05T03:49:46.888Z,99.99
2017-12-05T03:50:59.866Z,99.99
2017-12-05T03:52:12.403Z,99.99
2017-12-05T03:53:56.104Z,99.99
2017-12-05T03:55:09.089Z,99.99
2017-12-05T03:56:22.096Z,99.99
2017-12-05T03:57:35.270Z,99.99
2017-12-05T03:58:48.239Z,99.99
2017-12-05T04:00:01.387Z,99.99
2017-12-05T04:01:13.885Z,99.99
2017-12-05T04:02:26.881Z,99.99
2017-12-05T04:03:39.360Z,99.99
2017-12-05T04:04:51.853Z,99.99
2017-12-05T04:06:04.351Z,99.99
2017-12-05T04:07:16.412Z,99.99
2017-12-05T04:08:29.416Z,99.99
2017-12-05T04:09:42.430Z,99.99
2017-12-05T04:10:55.401Z,99.99
2017-12-05T04:12:07.468Z,99.99
2017-12-05T04:13:20.443Z,99.99
2017-12-05T04:14:33.417Z,99.99
2017-12-05T04:15:46.403Z,99.99
2017-12-05T04:16:59.104Z,99.99
2017-12-05T04:18:11.694Z,99.99
2017-12-05T04:19:24.669Z,99.99
2017-12-05T04:20:37.635Z,99.99
2017-12-05T04:21:49.626Z,99.99
2017-12-05T04:23:01.670Z,99.99
2017-12-05T04:24:14.652Z,99.99
2017-12-05T04:25:27.624Z,99.99
2017-12-05T04:26:40.614Z,99.99
2017-12-05T04:27:53.099Z,99.99
2017-12-05T04:29:05.157Z,99.99
2017-12-05T04:30:18.087Z,99.99
2017-12-05T04:31:31.080Z,99.99
2017-12-05T04:32:44.257Z,99.99
2017-12-05T04:33:57.197Z,99.99
2017-12-05T04:35:10.167Z,99.99
2017-12-05T04:36:23.209Z,99.99
2017-12-05T04:37:36.174Z,99.99
2017-12-05T04:38:49.138Z,99.99
2017-12-05T04:40:02.336Z,99.99
2017-12-05T04:41:15.303Z,99.99
2017-12-05T04:42:28.254Z,99.99
2017-12-05T04:43:41.208Z,99.99
2017-12-05T04:44:54.201Z,99.99
2017-12-05T04:46:06.263Z,99.99
2017-12-05T04:47:19.261Z,99.99
2017-12-05T04:48:32.212Z,99.99
2017-12-05T04:49:45.189Z,99.99
2017-12-05T04:50:58.445Z,99.99
2017-12-05T04:52:10.980Z,99.99
2017-12-05T04:53:23.497Z,99.99
2017-12-05T04:54:35.951Z,99.99
2017-12-05T04:55:48.465Z,99.99
2017-12-05T04:57:01.403Z,99.99
2017-12-05T04:58:14.394Z,99.99
2017-12-05T04:59:27.383Z,99.99
2017-12-05T05:00:39.435Z,99.99
2017-12-05T05:01:52.412Z,99.99
2017-12-05T05:03:04.877Z,99.99
2017-12-05T05:04:17.896Z,99.99
2017-12-05T05:05:30.395Z,99.99
2017-12-05T05:06:43.394Z,99.99
2017-12-05T05:07:56.366Z,99.99
2017-12-05T05:09:09.321Z,99.99
2017-12-05T05:10:21.842Z,99.99
2017-12-05T05:11:34.803Z,99.99
2017-12-05T05:12:47.773Z,99.99
2017-12-05T05:14:00.738Z,99.99
2017-12-05T05:15:13.442Z,99.99
2017-12-05T05:16:25.959Z,99.99
2017-12-05T05:17:38.930Z,99.99
2017-12-05T05:18:51.968Z,99.99
2017-12-05T05:20:05.120Z,99.99
2017-12-05T05:21:17.587Z,99.99
2017-12-05T05:22:30.576Z,99.99
2017-12-05T05:23:43.743Z,99.99
2017-12-05T05:24:56.743Z,99.99
2017-12-05T05:26:09.694Z,99.99
2017-12-05T05:27:22.691Z,99.99
2017-12-05T05:28:35.657Z,99.99
2017-12-05T05:29:48.614Z,99.99
2017-12-05T05:31:01.161Z,99.99
2017-12-05T05:32:14.399Z,99.99
2017-12-05T05:33:27.169Z,99.99
2017-12-05T05:34:40.154Z,99.99
2017-12-05T05:35:53.115Z,99.99
2017-12-05T05:37:05.635Z,99.99
2017-12-05T05:38:18.550Z,99.99
2017-12-05T05:39:31.091Z,99.99
2017-12-05T05:40:44.092Z,99.99
2017-12-05T05:41:57.076Z,99.99
2017-12-05T05:43:10.024Z,99.99
2017-12-05T05:44:22.987Z,99.99
2017-12-05T05:45:35.975Z,99.99
2017-12-05T05:46:48.950Z,99.99
2017-12-05T05:48:01.973Z,99.99
2017-12-05T05:49:14.881Z,99.99
2017-12-05T05:50:27.855Z,99.99
2017-12-05T05:51:40.425Z,99.99
2017-12-05T05:52:52.937Z,99.99
2017-12-05T05:54:05.906Z,99.99
2017-12-05T05:55:18.931Z,99.99
2017-12-05T05:56:31.905Z,99.99
2017-12-05T05:57:44.857Z,99.99
2017-12-05T05:58:57.821Z,99.99
2017-12-05T06:00:10.809Z,99.99
2017-12-05T06:01:23.325Z,99.99
2017-12-05T06:02:36.524Z,99.99
2017-12-05T06:03:49.483Z,99.99
2017-12-05T06:05:02.526Z,99.99
2017-12-05T06:06:15.507Z,99.99
2017-12-05T06:07:27.075Z,99.99
2017-12-05T06:08:39.160Z,99.99
2017-12-05T06:09:51.674Z,99.99
2017-12-05T06:11:04.211Z,99.99
2017-12-05T06:12:17.189Z,99.99
2017-12-05T06:13:30.170Z,99.99
2017-12-05T06:14:43.162Z,99.99
2017-12-05T06:15:56.134Z,99.99
2017-12-05T06:17:08.647Z,99.99
2017-12-05T06:18:21.651Z,99.99
2017-12-05T06:19:34.631Z,99.99
2017-12-05T06:20:47.179Z,99.99
2017-12-05T06:21:59.689Z,99.99
2017-12-05T06:23:12.660Z,99.99
2017-12-05T06:24:25.648Z,99.99
2017-12-05T06:25:38.177Z,99.99
2017-12-05T06:26:51.155Z,99.99
2017-12-05T06:28:04.130Z,99.99
2017-12-05T06:29:16.634Z,99.99
2017-12-05T06:30:29.577Z,99.99
2017-12-05T06:31:42.616Z,99.99
2017-12-05T06:32:55.684Z,99.99
2017-12-05T06:34:08.229Z,99.99
2017-12-05T06:35:21.195Z,99.99
2017-12-05T06:36:34.192Z,99.99
2017-12-05T06:37:46.698Z,99.99
2017-12-05T06:38:59.687Z,99.99
2017-12-05T06:40:12.644Z,99.99
2017-12-05T06:41:25.580Z,99.99
2017-12-05T06:42:37.595Z,99.99
2017-12-05T06:43:50.119Z,99.99
2017-12-05T06:45:03.320Z,99.99
2017-12-05T06:46:16.315Z,99.99
2017-12-05T06:47:29.305Z,99.99
2017-12-05T06:48:42.264Z,99.99
2017-12-05T06:49:54.766Z,99.99
2017-12-05T06:51:06.836Z,99.99
2017-12-05T06:52:19.819Z,99.99
2017-12-05T06:53:32.955Z,99.99
2017-12-05T06:54:45.446Z,99.99
2017-12-05T06:55:58.399Z,99.99
2017-12-05T06:57:11.432Z,99.99
2017-12-05T06:58:23.927Z,99.99
2017-12-05T06:59:36.904Z,99.99
2017-12-05T07:00:48.932Z,99.99
2017-12-05T07:02:01.925Z,99.99
2017-12-05T07:03:14.858Z,99.99
2017-12-05T07:04:27.409Z,99.99
2017-12-05T07:05:40.353Z,99.99
2017-12-05T07:06:53.327Z,99.99
2017-12-05T07:08:06.297Z,99.99
2017-12-05T07:09:18.838Z,99.99
2017-12-05T07:10:31.865Z,99.99
2017-12-05T07:11:44.843Z,99.99
2017-12-05T07:12:57.855Z,99.99
2017-12-05T07:14:10.400Z,99.99
2017-12-05T07:15:23.466Z,99.99
2017-12-05T07:16:36.469Z,99.99
2017-12-05T07:17:49.430Z,99.99
2017-12-05T07:19:01.925Z,99.99
2017-12-05T07:20:15.104Z,99.99
2017-12-05T07:21:27.635Z,99.99
2017-12-05T07:22:40.154Z,99.99
2017-12-05T07:23:53.302Z,99.99
2017-12-05T07:25:05.779Z,99.99
2017-12-05T07:26:18.738Z,99.99
2017-12-05T07:27:31.709Z,99.99
2017-12-05T07:28:44.644Z,99.99
2017-12-05T07:29:57.703Z,99.99
2017-12-05T07:31:09.778Z,99.99
2017-12-05T07:32:22.746Z,99.99
2017-12-05T07:33:35.700Z,99.99
2017-12-05T07:34:48.223Z,99.99
2017-12-05T07:36:00.795Z,99.99
2017-12-05T07:37:13.766Z,99.99
2017-12-05T07:38:26.802Z,99.99
2017-12-05T07:39:39.747Z,99.99
2017-12-05T07:40:52.427Z,99.99
2017-12-05T07:42:05.378Z,99.99
2017-12-05T07:43:17.891Z,99.99
2017-12-05T07:44:30.402Z,99.99
2017-12-05T07:45:42.968Z,99.99
2017-12-05T07:46:55.498Z,99.99
2017-12-05T07:48:08.478Z,99.99
2017-12-05T07:49:21.488Z,99.99
2017-12-05T07:50:33.992Z,99.99
2017-12-05T07:51:47.000Z,99.99
2017-12-05T07:52:59.017Z,99.99
2017-12-05T07:54:10.852Z,99.99
2017-12-05T07:55:23.319Z,99.99
2017-12-05T07:56:36.557Z,99.99
2017-12-05T07:57:48.582Z,99.99
2017-12-05T07:59:00.616Z,99.99
2017-12-05T08:00:13.515Z,99.99
2017-12-05T08:01:26.078Z,99.99
2017-12-05T08:02:39.059Z,99.99
2017-12-05T08:03:52.014Z,99.99
2017-12-05T08:05:04.954Z,99.99
2017-12-05T08:06:17.492Z,99.99
2017-12-05T08:07:30.486Z,99.99
2017-12-05T08:08:42.557Z,99.99
2017-12-05T08:09:55.541Z,99.99
2017-12-05T08:11:08.729Z,99.99
2017-12-05T08:12:21.731Z,99.99
2017-12-05T08:13:34.692Z,99.99
2017-12-05T08:14:47.651Z,99.99
2017-12-05T08:16:00.832Z,99.99
2017-12-05T08:17:13.348Z,99.99
2017-12-05T08:18:25.380Z,99.99
2017-12-05T08:19:38.350Z,99.99
2017-12-05T08:20:50.922Z,99.99
2017-12-05T08:22:03.919Z,99.99
2017-12-05T08:23:16.385Z,99.99
2017-12-05T08:24:29.371Z,99.99
2017-12-05T08:25:42.314Z,99.99
2017-12-05T08:26:54.832Z,99.99
2017-12-05T08:28:07.794Z,99.99
2017-12-05T08:29:20.763Z,99.99
2017-12-05T08:30:33.735Z,99.99
2017-12-05T08:31:46.726Z,99.99
2017-12-05T08:32:59.220Z,99.99
2017-12-05T08:34:11.237Z,99.99
2017-12-05T08:35:24.226Z,99.99
2017-12-05T08:36:36.711Z,99.99
2017-12-05T08:37:49.717Z,99.99
2017-12-05T08:39:02.713Z,99.99
2017-12-05T08:40:14.785Z,99.99
2017-12-05T08:41:27.781Z,99.99
2017-12-05T08:42:40.298Z,99.99
2017-12-05T08:43:52.760Z,99.99
2017-12-05T08:45:05.254Z,99.99
2017-12-05T08:46:18.244Z,99.99
2017-12-05T08:47:31.435Z,99.99
2017-12-05T08:48:44.374Z,99.99
2017-12-05T08:49:57.373Z,99.99
2017-12-05T08:51:09.926Z,99.99
2017-12-05T08:52:22.876Z,99.99
2017-12-05T08:53:36.079Z,99.99
2017-12-05T08:54:49.071Z,99.99
2017-12-05T08:56:01.613Z,99.99
2017-12-05T08:57:14.135Z,99.99
2017-12-05T08:58:26.178Z,99.99
2017-12-05T08:59:39.154Z,99.99
2017-12-05T09:00:51.632Z,99.99
2017-12-05T09:02:04.577Z,99.99
2017-12-05T09:03:17.555Z,99.99
2017-12-05T09:04:30.054Z,99.99
2017-12-05T09:05:42.609Z,99.99
2017-12-05T09:06:55.793Z,99.99
2017-12-05T09:08:07.831Z,99.99
2017-12-05T09:09:20.858Z,99.55
2017-12-05T09:10:33.845Z,98.15
2017-12-05T09:11:46.826Z,97.28
2017-12-05T09:12:58.912Z,98.25
2017-12-05T09:14:11.880Z,98.54
2017-12-05T09:15:24.823Z,95.2
2017-12-05T09:16:37.806Z,93.95
2017-12-05T09:17:51.203Z,93.66
2017-12-05T09:19:04.314Z,92.74
2017-12-05T09:20:17.283Z,92.65
2017-12-05T09:21:30.278Z,93.23
2017-12-05T09:22:42.810Z,94.82
2017-12-05T09:23:55.286Z,94.77
2017-12-05T09:25:08.017Z,94.96
2017-12-05T09:26:20.513Z,96.31
2017-12-05T09:27:33.246Z,99.11
2017-12-05T09:28:46.490Z,99.99
2017-12-05T09:29:59.511Z,99.99
2017-12-05T09:31:12.523Z,99.99
2017-12-05T09:32:25.691Z,99.99
2017-12-05T09:33:38.645Z,99.99
2017-12-05T09:34:51.606Z,99.98
2017-12-05T09:36:04.575Z,98.97
2017-12-05T09:37:17.077Z,96.8
2017-12-05T09:38:30.287Z,92.98
2017-12-05T09:39:43.230Z,93.71
2017-12-05T09:40:56.218Z,94.72
2017-12-05T09:42:08.734Z,95.78
2017-12-05T09:43:20.803Z,94.58
2017-12-05T09:44:32.862Z,92.5
2017-12-05T09:45:45.867Z,91.35
2017-12-05T09:46:58.926Z,89.21
2017-12-05T09:48:11.424Z,85.1
2017-12-05T09:49:24.400Z,82.86
2017-12-05T09:50:37.407Z,80.22
2017-12-05T09:51:50.424Z,79.39
2017-12-05T09:53:03.111Z,78.91
2017-12-05T09:54:15.629Z,80.55
2017-12-05T09:55:28.140Z,80.32
2017-12-05T09:56:41.176Z,79.99
2017-12-05T09:57:54.166Z,79.74
2017-12-05T09:59:06.698Z,78.67
2017-12-05T10:00:19.645Z,78.19
2017-12-05T10:01:32.644Z,78.91
2017-12-05T10:02:45.190Z,79.35
2017-12-05T10:03:57.230Z,82.8
2017-12-05T10:05:10.221Z,82.28
2017-12-05T10:06:23.198Z,81.3
2017-12-05T10:07:36.144Z,80.96
2017-12-05T10:08:48.647Z,79.64
2017-12-05T10:10:01.199Z,80.22
2017-12-05T10:11:13.740Z,79.25
2017-12-05T10:12:26.736Z,77.16
2017-12-05T10:13:39.751Z,74.62
2017-12-05T10:14:52.894Z,73.94
2017-12-05T10:16:05.994Z,73.74
2017-12-05T10:17:18.052Z,73.39
2017-12-05T10:18:30.573Z,74.04
2017-12-05T10:19:43.551Z,76.32
2017-12-05T10:20:56.524Z,77.16
2017-12-05T10:22:09.512Z,76.58
2017-12-05T10:23:22.611Z,75.74
2017-12-05T10:24:35.150Z,75.3
2017-12-05T10:25:48.109Z,72.77
2017-12-05T10:27:01.123Z,71.29
2017-12-05T10:28:14.104Z,69.77
2017-12-05T10:29:27.105Z,65.23
2017-12-05T10:30:39.669Z,67.02
2017-12-05T10:31:52.629Z,66.99
2017-12-05T10:33:05.604Z,66.79
2017-12-05T10:34:18.597Z,64.32
2017-12-05T10:35:31.577Z,63.58
2017-12-05T10:36:43.627Z,62.7
2017-12-05T10:37:56.609Z,61.27
2017-12-05T10:39:09.113Z,60.23
2017-12-05T10:40:21.802Z,60.13
2017-12-05T10:41:34.329Z,58.97
2017-12-05T10:42:47.310Z,60.42
2017-12-05T10:44:00.355Z,61.37
2017-12-05T10:45:13.577Z,60.98
2017-12-05T10:46:26.546Z,61.37
2017-12-05T10:47:39.523Z,62.41
2017-12-05T10:48:52.732Z,63.09
2017-12-05T10:50:05.357Z,63.78
2017-12-05T10:51:18.322Z,65.46
2017-12-05T10:52:30.329Z,68.32
2017-12-05T10:53:43.354Z,69.41
2017-12-05T10:54:55.861Z,69.12
2017-12-05T10:56:08.414Z,68.67
2017-12-05T10:57:21.384Z,71.32
2017-12-05T10:58:33.875Z,72.35
2017-12-05T10:59:46.882Z,72.83
2017-12-05T11:00:59.408Z,73.38
2017-12-05T11:02:12.367Z,74.54
2017-12-05T11:03:24.419Z,74.06
2017-12-05T11:04:37.439Z,72.89
2017-12-05T11:05:50.551Z,72.64
2017-12-05T11:07:03.116Z,73.13
2017-12-05T11:08:16.320Z,75.13
2017-12-05T11:09:29.322Z,72.31
2017-12-05T11:10:42.264Z,68.63
2017-12-05T11:11:54.796Z,68.18
2017-12-05T11:13:07.808Z,68.41
2017-12-05T11:14:20.842Z,71.84
2017-12-05T11:15:33.819Z,74.58
2017-12-05T11:16:46.812Z,74.51
2017-12-05T11:17:59.354Z,73.22
2017-12-05T11:19:11.864Z,69.57
2017-12-05T11:20:23.960Z,67.05
2017-12-05T11:21:36.941Z,67.67
2017-12-05T11:22:49.971Z,67.93
2017-12-05T11:24:02.971Z,66.96
2017-12-05T11:25:15.495Z,64.95
2017-12-05T11:26:28.030Z,65.27
2017-12-05T11:27:41.037Z,65.53
2017-12-05T11:28:54.026Z,65.08
2017-12-05T11:30:06.578Z,63.35
2017-12-05T11:31:18.175Z,64.42
2017-12-05T11:32:31.158Z,65.75
2017-12-05T11:33:43.685Z,66.31
2017-12-05T11:34:56.717Z,66.02
2017-12-05T11:36:09.217Z,66.02
2017-12-05T11:37:22.335Z,64.75
2017-12-05T11:38:35.336Z,64.88
2017-12-05T11:39:48.314Z,64.69
2017-12-05T11:41:01.302Z,64.91
2017-12-05T11:42:13.373Z,61.63
2017-12-05T11:43:25.884Z,60.88
2017-12-05T11:44:38.889Z,61.47
2017-12-05T11:45:51.451Z,62.99
2017-12-05T11:47:04.450Z,65.01
2017-12-05T11:48:17.016Z,68.12
2017-12-05T11:49:29.511Z,66.72
2017-12-05T11:50:42.511Z,67.89
2017-12-05T11:51:55.537Z,69.02
2017-12-05T11:53:07.583Z,69.02
2017-12-05T11:54:20.101Z,67.11
2017-12-05T11:55:33.163Z,66.47
2017-12-05T11:56:45.685Z,64.49
2017-12-05T11:57:58.240Z,63.84
2017-12-05T11:59:11.261Z,64.62
2017-12-05T12:00:23.805Z,63.84
2017-12-05T12:04:28.970Z,66.6
2017-12-05T12:05:42.018Z,66.86
2017-12-05T12:09:03.741Z,66.14
2017-12-05T12:10:16.740Z,67.24
2017-12-05T12:14:57.452Z,64.88
2017-12-05T12:16:09.047Z,67.02
2017-12-05T12:17:21.126Z,65.72
2017-12-05T12:18:33.383Z,68.02
2017-12-05T12:19:46.355Z,63.65
2017-12-05T12:20:57.952Z,64.65
2017-12-05T12:22:10.927Z,64.78
2017-12-05T12:23:23.968Z,64.78
2017-12-05T12:24:36.498Z,63.26
2017-12-05T12:25:49.677Z,63.16
2017-12-05T12:26:44.681Z,63.26
2017-12-05T12:27:01.106Z,63.26
2017-12-05T12:28:13.627Z,65.4
2017-12-05T12:29:26.174Z,64.88
2017-12-05T12:30:39.164Z,67.5
2017-12-05T12:31:52.125Z,65.53
2017-12-05T12:33:05.102Z,63.87
2017-12-05T12:34:17.607Z,64.88
2017-12-05T12:35:29.685Z,64.2
2017-12-05T12:36:42.197Z,64.49
2017-12-05T12:37:55.174Z,65.85
2017-12-05T12:39:08.131Z,65.72
2017-12-05T12:40:21.086Z,65.17
2017-12-05T12:41:33.613Z,63.84
2017-12-05T12:42:46.159Z,62.51
2017-12-05T12:43:59.166Z,62.32
2017-12-05T12:45:12.122Z,63.06
2017-12-05T12:46:25.150Z,64.39
2017-12-05T12:47:37.690Z,63.68
2017-12-05T12:48:50.673Z,64.65
2017-12-05T12:50:03.178Z,62.84
2017-12-05T12:51:15.228Z,63.23
2017-12-05T12:52:28.252Z,62.96
2017-12-05T12:53:40.736Z,62.7
2017-12-05T12:54:53.751Z,61.54
2017-12-05T15:06:34.337Z,63.06
2017-12-05T15:06:35.134Z,63.15
2017-12-05T15:06:35.928Z,63.06
2017-12-05T15:06:36.728Z,63.06
2017-12-05T15:06:37.531Z,62.86
2017-12-05T15:06:38.338Z,62.86
2017-12-05T15:06:39.145Z,62.96
2017-12-05T15:06:39.953Z,62.86
2017-12-05T15:06:40.741Z,62.86
2017-12-05T15:06:41.536Z,62.86
2017-12-05T15:06:42.338Z,63.06
2017-12-05T15:06:43.140Z,62.96
2017-12-05T15:06:44.181Z,62.96
2017-12-05T15:06:44.984Z,62.96
2017-12-05T15:06:45.781Z,62.86
2017-12-05T15:06:46.587Z,62.96
2017-12-05T15:06:47.378Z,62.86
2017-12-05T15:06:48.175Z,62.86
2017-12-05T15:06:48.978Z,62.86
2017-12-05T15:06:50.012Z,62.76
2017-12-05T15:07:24.709Z,62.93
2017-12-05T15:07:25.510Z,62.54
2017-12-05T15:07:26.302Z,63.22
2017-12-05T15:07:27.111Z,63.22
2017-12-05T15:07:27.907Z,63.32
2017-12-05T15:07:28.715Z,63.22
2017-12-05T15:07:29.521Z,63.32
2017-12-05T15:07:30.325Z,63.32
2017-12-05T15:07:31.123Z,62.93
2017-12-05T15:08:13.066Z,63.78
2017-12-05T15:09:13.047Z,65.43
2017-12-05T15:10:13.020Z,64.75
2017-12-05T15:11:13.007Z,63.42
2017-12-05T15:12:39.670Z,63.61
2017-12-05T15:13:39.650Z,62.93
2017-12-05T15:14:39.623Z,62.57
2017-12-05T15:15:39.611Z,62.57
2017-12-05T15:16:39.592Z,61.43
2017-12-05T15:17:39.575Z,61.53
2017-12-05T15:18:39.552Z,61.85
2017-12-05T15:19:39.535Z,60.29
2017-12-05T15:20:39.502Z,60.52
2017-12-05T15:21:39.487Z,60.22
2017-12-05T15:22:39.474Z,60.22
2017-12-05T15:23:39.458Z,60.00
2017-12-05T15:24:39.437Z,60.29
2017-12-05T15:25:39.418Z,61.36
2017-12-05T15:26:39.393Z,61.14
2017-12-05T15:27:39.378Z,61.53
2017-12-05T15:28:39.345Z,61.24
2017-12-05T15:29:39.342Z,61.11
2017-12-05T15:30:39.325Z,62.02
2017-12-05T15:31:39.300Z,60.19
2017-12-05T15:32:39.293Z,59.22
2017-12-05T15:33:39.270Z,59.87
2017-12-05T15:34:39.259Z,60.16
2017-12-05T15:35:39.249Z,60.10
2017-12-05T15:36:39.241Z,58.76
2017-12-05T15:37:39.225Z,57.81
2017-12-05T15:38:39.204Z,57.52
2017-12-05T15:39:39.197Z,56.67
2017-12-05T15:40:39.182Z,55.62
2017-12-05T15:41:39.170Z,56.20
2017-12-05T15:42:39.173Z,55.91
2017-12-05T15:43:39.156Z,54.28
2017-12-05T15:44:39.155Z,55.26
2017-12-05T15:45:39.148Z,55.91
2017-12-05T15:46:39.132Z,55.42
2017-12-05T15:47:39.122Z,55.62
2017-12-05T15:48:39.118Z,55.06
2017-12-05T15:49:39.096Z,54.91
2017-12-05T15:50:39.097Z,56.15
2017-12-05T15:51:39.082Z,57.10
2017-12-05T15:52:39.080Z,58.17
2017-12-05T15:53:39.069Z,56.41
2017-12-05T15:54:39.066Z,56.61
2017-12-05T15:55:39.056Z,57.52
2017-12-05T15:56:39.038Z,57.20
2017-12-05T15:57:39.039Z,58.24
2017-12-05T15:58:39.027Z,58.63
2017-12-05T15:59:39.017Z,59.12
2017-12-05T16:00:39.016Z,59.70
2017-12-05T16:01:39.001Z,58.92
2017-12-05T16:02:38.998Z,59.25
2017-12-05T16:03:38.980Z,57.32
2017-12-05T16:04:38.981Z,56.93
2017-12-05T16:05:38.965Z,57.71
2017-12-05T16:06:38.965Z,59.22
2017-12-05T16:07:38.943Z,59.70
2017-12-05T16:08:38.952Z,59.09
2017-12-05T16:09:38.932Z,61.04
2017-12-05T16:10:38.938Z,61.14
2017-12-05T16:11:38.916Z,60.26
2017-12-05T16:12:38.914Z,59.90
2017-12-05T16:13:38.915Z,59.77
2017-12-05T16:14:38.898Z,59.87
2017-12-05T16:15:38.884Z,59.77
2017-12-05T16:16:38.868Z,58.73
2017-12-05T16:17:38.863Z,57.23
2017-12-05T16:18:38.853Z,56.84
2017-12-05T16:19:38.853Z,57.32
2017-12-05T16:20:38.851Z,57.52
2017-12-05T16:21:38.834Z,58.37
2017-12-05T16:22:38.836Z,57.91
2017-12-05T16:23:38.818Z,57.03
2017-12-05T16:24:38.813Z,57.35
2017-12-05T16:25:38.811Z,55.91
2017-12-05T16:26:38.804Z,53.86
2017-12-05T16:27:38.788Z,55.13
2017-12-05T16:28:38.791Z,55.79
2017-12-05T16:29:38.774Z,55.91
2017-12-05T16:30:38.761Z,54.30
2017-12-05T16:31:38.769Z,53.16
2017-12-05T16:32:38.762Z,51.32
2017-12-05T16:33:38.751Z,51.98
2017-12-05T16:34:38.734Z,52.61
2017-12-05T16:35:38.735Z,54.32
2017-12-05T16:36:38.733Z,54.93
2017-12-05T16:37:38.724Z,55.13
2017-12-05T16:38:38.717Z,54.35
2017-12-05T16:39:38.691Z,54.35
2017-12-05T16:40:38.696Z,54.54
2017-12-05T16:41:38.684Z,53.66
2017-12-05T16:42:38.677Z,53.69
2017-12-05T16:43:38.661Z,53.03
2017-12-05T16:44:38.663Z,51.29
2017-12-05T16:45:38.655Z,51.49
2017-12-05T16:46:38.633Z,52.61
2017-12-05T16:47:38.631Z,55.18
2017-12-05T16:48:38.631Z,56.81
2017-12-05T16:49:38.616Z,56.18
2017-12-05T16:50:38.602Z,54.35
2017-12-05T16:51:38.614Z,53.47
2017-12-05T16:52:38.602Z,53.88
2017-12-05T16:53:38.582Z,52.91
2017-12-05T16:54:38.589Z,52.42
2017-12-05T16:55:38.581Z,52.69
2017-12-05T16:56:38.564Z,54.59
2017-12-05T16:57:38.562Z,55.63
2017-12-05T16:58:38.547Z,56.61
2017-12-05T16:59:38.536Z,56.74
2017-12-05T17:00:38.541Z,55.03